Accueil
METAR-TAF:

METAR-TAF

Aéroports :

Anatom, Vanuatu

latitude: 20-14-57S, longitude: 169-46-17E, altitude: 2 m

Observation

Le bulletin a été fait il y a 2 heures et 0 minutes, à 21:00 UTC
Vent 2 kt de nord/nord-est
Température 20°C
Humidité 88%
Pression 1016 hPa

METAR: NVVA 202100Z AUTO 02002KT //// // NCD 20/18 Q1016 RMK NIL

Heure: 10:00 (23:00 UTC)

Prévision

Le bulletin a été fait il y a 7 heures et 0 minutes, à 16:00 UTC
Prévision valable du 20 à 18 UTC au 21 à 18 UTC
Vent 3 kt de direction variable
Visibilité: 9000 m
Nuages fragmentés à une hauteur de 2000 ft
Ciel couvert à une hauteur de 4000 ft
Nuages fragmentés à une hauteur de 1800 ft
Ciel couvert à une hauteur de 3500 ft
faibles averses de pluie

TAF: NVVA 201600Z 2018/2118 VRB03KT 9999 BKN020 OVC040 INTER 2018/2024 9000 -SHRA BKN018 OVC035

Observations et prévisions météorologiques de plus de 4000 aéroports (messages METAR et TAF).

Les stations disponibles sont représentées par des disques jaunes et rouges sur la carte.

Passer la souris dessus pour voir le nom de la station.

Cliquer dessus pour voir les observations et prévisions météorologiques.

Pour changer de carte: cliquez sur les boutons verts avec une croix noire pour zoomer, sur le bouton vert avec un tiret pour effectuer un zoom arrière, ou sur les flèches vertes pour les cartes adjacentes.


METAR-TAF: